createdAt,value
2019-01-22T00:01:11.477Z,-2.10
2019-01-22T00:03:41.473Z,-2.20
2019-01-22T00:06:11.483Z,-2.30
2019-01-22T00:08:41.406Z,-2.30
2019-01-22T00:11:11.358Z,-2.40
2019-01-22T00:13:41.302Z,-2.50
2019-01-22T00:16:11.297Z,-2.70
2019-01-22T00:18:41.133Z,-2.90
2019-01-22T00:21:10.989Z,-2.90
2019-01-22T00:23:41.078Z,-2.90
2019-01-22T00:26:10.980Z,-2.90
2019-01-22T00:28:40.921Z,-2.90
2019-01-22T00:31:10.972Z,-3.00
2019-01-22T00:33:41.039Z,-3.10
2019-01-22T00:36:11.007Z,-3.10
2019-01-22T00:38:40.873Z,-3.20
2019-01-22T00:41:10.776Z,-3.20
2019-01-22T00:43:40.721Z,-3.20
2019-01-22T00:46:10.967Z,-3.20
2019-01-22T00:48:40.948Z,-3.20
2019-01-22T00:51:10.892Z,-3.20
2019-01-22T00:53:40.763Z,-3.30
2019-01-22T00:56:10.860Z,-3.40
2019-01-22T00:58:40.932Z,-3.50
2019-01-22T01:01:10.968Z,-3.60
2019-01-22T01:03:40.848Z,-3.70
2019-01-22T01:06:10.912Z,-3.60
2019-01-22T01:08:40.951Z,-3.70
2019-01-22T01:11:11.240Z,-3.70
2019-01-22T01:13:41.206Z,-3.70
2019-01-22T01:16:11.204Z,-3.50
2019-01-22T01:18:41.181Z,-3.50
2019-01-22T01:21:11.066Z,-3.50
2019-01-22T01:23:41.001Z,-3.60
2019-01-22T01:26:10.884Z,-3.60
2019-01-22T01:28:40.846Z,-3.60
2019-01-22T01:31:10.818Z,-3.40
2019-01-22T01:33:40.753Z,-3.40
2019-01-22T01:36:10.671Z,-3.60
2019-01-22T01:38:40.700Z,-3.80
2019-01-22T01:41:11.155Z,-4.00
2019-01-22T01:43:41.093Z,-4.10
2019-01-22T01:46:10.972Z,-4.10
2019-01-22T01:48:40.897Z,-4.20
2019-01-22T01:51:10.987Z,-4.20
2019-01-22T01:53:40.954Z,-4.20
2019-01-22T01:56:10.957Z,-4.20
2019-01-22T01:58:40.906Z,-4.20
2019-01-22T02:01:10.887Z,-4.10
2019-01-22T02:03:41.200Z,-4.00
2019-01-22T02:06:11.173Z,-3.90
2019-01-22T02:08:41.225Z,-3.90
2019-01-22T02:11:11.289Z,-3.80
2019-01-22T02:13:45.479Z,-3.80
2019-01-22T02:16:30.910Z,-3.70
2019-01-22T02:19:22.839Z,-3.80
2019-01-22T02:22:41.091Z,-4.00
2019-01-22T02:28:51.486Z,-4.00
2019-01-22T02:31:53.851Z,-3.90
2019-01-22T02:34:52.228Z,-3.80
2019-01-22T02:38:05.524Z,-3.80
2019-01-22T02:40:48.798Z,-3.70
2019-01-22T02:44:05.195Z,-3.70
2019-01-22T02:46:47.793Z,-3.60
2019-01-22T02:49:58.330Z,-3.70
2019-01-22T02:52:57.944Z,-3.70
2019-01-22T02:55:45.352Z,-4.10
2019-01-22T02:58:52.731Z,-4.50
2019-01-22T03:01:58.858Z,-4.20
2019-01-22T03:04:43.844Z,-4.50
2019-01-22T03:07:48.052Z,-4.70
2019-01-22T03:10:27.394Z,-4.60
2019-01-22T03:13:29.091Z,-4.20
2019-01-22T03:16:26.280Z,-4.20
2019-01-22T03:19:46.174Z,-4.10
2019-01-22T03:23:06.495Z,-4.20
2019-01-22T03:26:07.124Z,-4.30
2019-01-22T03:29:02.299Z,-4.20
2019-01-22T03:32:19.007Z,-4.20
2019-01-22T03:35:24.713Z,-4.10
2019-01-22T03:38:31.400Z,-4.40
2019-01-22T03:41:36.975Z,-4.70
2019-01-22T03:44:49.984Z,-4.40
2019-01-22T03:48:05.868Z,-4.40
2019-01-22T03:51:04.537Z,-4.30
2019-01-22T03:53:53.524Z,-4.30
2019-01-22T03:57:05.100Z,-4.30
2019-01-22T03:59:35.348Z,-3.90
2019-01-22T04:02:05.309Z,-4.10
2019-01-22T04:04:35.207Z,-4.00
2019-01-22T04:07:05.190Z,-4.10
2019-01-22T04:09:42.557Z,-4.10
2019-01-22T04:12:12.455Z,-4.60
2019-01-22T04:14:42.343Z,-4.90
2019-01-22T04:17:12.280Z,-5.00
2019-01-22T04:22:17.500Z,-5.20
2019-01-22T04:24:59.449Z,-5.30
2019-01-22T04:27:56.710Z,-5.40
2019-01-22T04:30:53.441Z,-5.50
2019-01-22T04:34:13.965Z,-5.60
2019-01-22T04:37:13.725Z,-5.50
2019-01-22T04:40:21.528Z,-5.60
2019-01-22T04:43:51.010Z,-5.60
2019-01-22T04:46:52.851Z,-5.70
2019-01-22T04:50:16.841Z,-5.80
2019-01-22T04:53:02.441Z,-5.80
2019-01-22T04:56:01.095Z,-5.90
2019-01-22T04:58:40.747Z,-5.80
2019-01-22T05:01:39.115Z,-5.80
2019-01-22T05:05:21.209Z,-5.80
2019-01-22T05:08:17.059Z,-5.70
2019-01-22T05:11:21.418Z,-5.80
2019-01-22T05:14:21.299Z,-5.60
2019-01-22T05:17:13.633Z,-5.60
2019-01-22T05:20:20.456Z,-5.80
2019-01-22T05:23:24.168Z,-5.90
2019-01-22T05:26:19.547Z,-5.70
2019-01-22T05:29:48.832Z,-5.80
2019-01-22T05:32:44.761Z,-5.60
2019-01-22T05:35:50.321Z,-5.30
2019-01-22T05:39:00.631Z,-4.80
2019-01-22T05:42:10.755Z,-4.70
2019-01-22T05:45:25.248Z,-4.70
2019-01-22T05:48:37.403Z,-4.50
2019-01-22T05:51:26.491Z,-4.50
2019-01-22T05:54:39.873Z,-4.60
2019-01-22T05:57:18.667Z,-4.60
2019-01-22T06:00:19.105Z,-4.70
2019-01-22T06:03:00.389Z,-4.60
2019-01-22T06:05:59.905Z,-4.70
2019-01-22T06:08:58.836Z,-4.80
2019-01-22T06:11:51.221Z,-5.10
2019-01-22T06:14:45.791Z,-5.20
2019-01-22T06:17:46.492Z,-4.80
2019-01-22T06:21:02.396Z,-5.10
2019-01-22T06:24:08.272Z,-4.50
2019-01-22T06:27:06.369Z,-4.60
2019-01-22T06:30:13.021Z,-4.80
2019-01-22T06:32:54.393Z,-4.90
2019-01-22T06:36:02.951Z,-4.90
2019-01-22T06:38:59.787Z,-4.90
2019-01-22T06:42:07.506Z,-4.90
2019-01-22T06:45:00.723Z,-4.70
2019-01-22T06:48:14.185Z,-4.90
2019-01-22T06:51:36.625Z,-5.00
2019-01-22T06:54:39.655Z,-4.90
2019-01-22T06:57:31.233Z,-5.10
2019-01-22T07:00:32.403Z,-5.10
2019-01-22T07:03:25.452Z,-4.90
2019-01-22T07:06:49.349Z,-4.80
2019-01-22T07:10:02.733Z,-4.90
2019-01-22T07:13:18.198Z,-5.00
2019-01-22T07:16:30.625Z,-4.90
2019-01-22T07:19:16.798Z,-4.90
2019-01-22T07:22:27.199Z,-4.80
2019-01-22T07:25:18.342Z,-4.80
2019-01-22T07:28:41.741Z,-4.80
2019-01-22T07:31:28.874Z,-4.90
2019-01-22T07:34:34.016Z,-4.80
2019-01-22T07:37:22.208Z,-4.70
2019-01-22T07:40:18.615Z,-4.70
2019-01-22T07:43:21.070Z,-4.50
2019-01-22T07:46:27.313Z,-4.40
2019-01-22T07:49:30.191Z,-4.10
2019-01-22T07:52:20.534Z,-3.80
2019-01-22T07:55:36.936Z,-3.80
2019-01-22T07:58:36.180Z,-3.60
2019-01-22T08:01:36.412Z,-3.40
2019-01-22T08:04:42.655Z,-3.20
2019-01-22T08:07:55.904Z,-3.40
2019-01-22T08:11:22.447Z,-3.30
2019-01-22T08:14:31.397Z,-2.80
2019-01-22T08:17:32.826Z,-2.20
2019-01-22T08:20:27.932Z,-2.30
2019-01-22T08:23:38.186Z,-2.60
2019-01-22T08:27:04.559Z,-2.50
2019-01-22T08:29:51.745Z,-2.20
2019-01-22T08:32:44.016Z,-2.60
2019-01-22T08:35:39.499Z,-2.00
2019-01-22T08:38:33.202Z,-1.60
2019-01-22T08:41:42.911Z,-1.10
2019-01-22T08:44:47.241Z,-1.00
2019-01-22T08:47:53.478Z,-1.20
2019-01-22T08:50:52.154Z,-0.90
2019-01-22T08:53:45.365Z,-0.60
2019-01-22T08:56:33.644Z,0.00
2019-01-22T08:59:13.760Z,0.10
2019-01-22T09:02:13.128Z,-0.40
2019-01-22T09:05:16.714Z,-0.80
2019-01-22T09:08:16.388Z,-0.80
2019-01-22T09:11:23.795Z,-0.40
2019-01-22T09:14:41.173Z,-0.20
2019-01-22T09:17:44.525Z,-0.20
2019-01-22T09:21:05.101Z,-0.30
2019-01-22T09:24:03.957Z,-0.30
2019-01-22T09:27:21.332Z,-0.40
2019-01-22T09:30:01.674Z,-0.10
2019-01-22T09:33:31.000Z,0.00
2019-01-22T09:36:48.961Z,-0.10
2019-01-22T09:39:19.065Z,-0.10
2019-01-22T09:41:49.064Z,-0.10
2019-01-22T09:44:19.090Z,-0.50
2019-01-22T09:46:49.066Z,-0.60
2019-01-22T09:49:19.083Z,-0.60
2019-01-22T09:51:49.143Z,-1.20
2019-01-22T09:54:19.073Z,-1.40
2019-01-22T09:56:49.032Z,-1.50
2019-01-22T09:59:19.050Z,-1.50
2019-01-22T10:01:49.026Z,-1.60
2019-01-22T10:04:18.896Z,-1.70
2019-01-22T10:06:48.802Z,-1.60
2019-01-22T10:09:20.687Z,-1.50
2019-01-22T10:11:50.620Z,-1.50
2019-01-22T10:14:20.476Z,-1.50
2019-01-22T10:16:50.432Z,-1.60
2019-01-22T10:19:20.294Z,-1.50
2019-01-22T10:21:50.247Z,-1.50
2019-01-22T10:24:20.262Z,-1.50
2019-01-22T10:26:50.155Z,-1.50
2019-01-22T10:29:20.008Z,-1.40
2019-01-22T10:31:50.519Z,-1.30
2019-01-22T10:34:20.553Z,-1.40
2019-01-22T10:36:53.009Z,-1.50
2019-01-22T10:39:23.121Z,-1.50
2019-01-22T10:41:53.163Z,-1.30
2019-01-22T10:44:23.569Z,-1.30
2019-01-22T10:46:53.931Z,-1.30
2019-01-22T10:49:24.263Z,-1.30
2019-01-22T10:51:54.684Z,-1.30
2019-01-22T10:54:25.501Z,-1.50
2019-01-22T10:56:55.942Z,-1.50
2019-01-22T10:59:27.706Z,-1.50
2019-01-22T11:01:57.970Z,-1.40
2019-01-22T11:04:29.445Z,-1.30
2019-01-22T11:06:59.826Z,-1.30
2019-01-22T11:09:30.175Z,-1.20
2019-01-22T11:12:00.607Z,-1.10
2019-01-22T11:14:30.601Z,-1.10
2019-01-22T11:17:15.861Z,-1.10
2019-01-22T11:19:45.747Z,-1.30
2019-01-22T11:22:15.785Z,-1.30
2019-01-22T11:24:45.978Z,-1.10
2019-01-22T11:27:17.547Z,-1.10
2019-01-22T11:29:48.194Z,-1.00
2019-01-22T11:32:18.686Z,-1.00
2019-01-22T11:34:49.301Z,-0.90
2019-01-22T11:37:19.437Z,-0.90
2019-01-22T11:39:50.720Z,-0.90
2019-01-22T11:42:21.073Z,-0.90
2019-01-22T11:44:51.406Z,-0.80
2019-01-22T11:47:21.696Z,-0.70
2019-01-22T11:49:51.643Z,-0.70
2019-01-22T11:52:32.464Z,-0.90
2019-01-22T11:55:03.633Z,-0.80
2019-01-22T11:57:35.579Z,-0.70
2019-01-22T12:00:09.214Z,-0.60
2019-01-22T12:02:40.999Z,-0.60
2019-01-22T12:05:11.313Z,-0.40
2019-01-22T12:07:41.993Z,-0.50
2019-01-22T12:10:12.013Z,-0.60
2019-01-22T12:12:41.926Z,-0.50
2019-01-22T12:15:13.909Z,-0.40
2019-01-22T12:17:44.544Z,-0.60
2019-01-22T12:20:17.707Z,-0.50
2019-01-22T12:23:34.472Z,-0.50
2019-01-22T12:26:02.209Z,-0.40
2019-01-22T12:28:32.233Z,-0.30
2019-01-22T12:31:02.133Z,-0.30
2019-01-22T12:33:32.015Z,-0.10
2019-01-22T12:36:01.908Z,0.00
2019-01-22T12:38:31.875Z,0.10
2019-01-22T12:41:01.824Z,0.10
2019-01-22T12:43:31.721Z,-0.10
2019-01-22T12:46:01.681Z,-0.20
2019-01-22T12:48:31.600Z,-0.10
2019-01-22T12:51:01.505Z,-0.10
2019-01-22T12:53:31.484Z,-0.30
2019-01-22T12:56:04.682Z,-0.50
2019-01-22T12:58:33.026Z,-0.70
2019-01-22T13:01:02.897Z,-0.70
2019-01-22T13:03:32.879Z,-0.80
2019-01-22T13:06:05.356Z,-0.90
2019-01-22T13:08:35.240Z,-0.90
2019-01-22T13:11:05.596Z,-1.00
2019-01-22T13:13:35.469Z,-1.00
2019-01-22T13:16:05.347Z,-0.90
2019-01-22T13:18:35.283Z,-0.70
2019-01-22T13:21:05.408Z,-0.80
2019-01-22T13:23:35.496Z,-0.90
2019-01-22T13:26:11.242Z,-0.80
2019-01-22T13:28:37.499Z,-0.80
2019-01-22T13:31:07.618Z,-0.60
2019-01-22T13:33:37.694Z,-0.40
2019-01-22T13:36:07.617Z,-0.10
2019-01-22T13:38:37.611Z,0.10
2019-01-22T13:41:07.621Z,0.10
2019-01-22T13:43:37.593Z,0.00
2019-01-22T13:46:07.624Z,-0.30
2019-01-22T13:48:37.533Z,-0.10
2019-01-22T13:51:07.501Z,-0.10
2019-01-22T13:53:37.355Z,-0.20
2019-01-22T13:56:07.407Z,-0.50
2019-01-22T13:58:37.294Z,-0.60
2019-01-22T14:01:07.260Z,-0.70
2019-01-22T14:03:37.139Z,-0.70
2019-01-22T14:06:07.159Z,-0.90
2019-01-22T14:08:37.008Z,-1.10
2019-01-22T14:11:06.988Z,-1.00
2019-01-22T14:13:36.996Z,-1.00
2019-01-22T14:16:06.966Z,-1.10
2019-01-22T14:18:36.974Z,-1.30
2019-01-22T14:21:06.898Z,-0.90
2019-01-22T14:23:36.804Z,-1.10
2019-01-22T14:26:06.671Z,-0.80
2019-01-22T14:28:36.638Z,-1.00
2019-01-22T14:31:06.548Z,-0.90
2019-01-22T14:33:36.490Z,-1.00
2019-01-22T14:36:06.720Z,-1.10
2019-01-22T14:38:36.594Z,-1.10
2019-01-22T14:41:06.593Z,-1.10
2019-01-22T14:43:36.486Z,-1.10
2019-01-22T14:46:06.449Z,-1.10
2019-01-22T14:48:36.295Z,-1.20
2019-01-22T14:51:06.276Z,-1.30
2019-01-22T14:53:36.212Z,-1.30
2019-01-22T14:56:06.104Z,-1.30
2019-01-22T14:58:36.077Z,-1.40
2019-01-22T15:01:05.954Z,-1.40
2019-01-22T15:03:41.380Z,-1.40
2019-01-22T15:06:07.360Z,-1.50
2019-01-22T15:08:37.299Z,-1.60
2019-01-22T15:11:07.194Z,-1.50
2019-01-22T15:13:37.051Z,-1.40
2019-01-22T15:16:06.938Z,-1.60
2019-01-22T15:18:36.898Z,-1.50
2019-01-22T15:21:07.280Z,-1.50
2019-01-22T15:23:37.143Z,-1.50
2019-01-22T15:26:07.037Z,-1.50
2019-01-22T15:28:36.882Z,-1.60
2019-01-22T15:31:06.876Z,-1.50
2019-01-22T15:33:36.865Z,-1.50
2019-01-22T15:36:06.905Z,-1.90
2019-01-22T15:38:36.733Z,-1.90
2019-01-22T15:41:06.630Z,-1.80
2019-01-22T15:43:36.555Z,-1.70
2019-01-22T15:46:06.548Z,-1.70
2019-01-22T15:48:36.516Z,-1.60
2019-01-22T15:51:06.594Z,-1.70
2019-01-22T15:53:36.547Z,-1.80
2019-01-22T15:56:06.562Z,-1.70
2019-01-22T15:58:36.578Z,-1.70
2019-01-22T16:01:06.576Z,-1.70
2019-01-22T16:03:36.635Z,-1.60
2019-01-22T16:06:06.744Z,-1.80
2019-01-22T16:08:36.710Z,-1.60
2019-01-22T16:11:06.674Z,-1.60
2019-01-22T16:13:36.732Z,-1.60
2019-01-22T16:16:06.635Z,-1.60
2019-01-22T16:18:36.720Z,-1.70
2019-01-22T16:21:08.376Z,-1.80
2019-01-22T16:23:38.707Z,-1.70
2019-01-22T16:26:08.568Z,-1.80
2019-01-22T16:28:38.506Z,-1.80
2019-01-22T16:31:08.391Z,-1.80
2019-01-22T16:33:38.333Z,-1.90
2019-01-22T16:36:08.301Z,-2.00
2019-01-22T16:38:38.178Z,-2.00
2019-01-22T16:41:08.104Z,-2.00
2019-01-22T16:43:38.071Z,-2.10
2019-01-22T16:46:09.487Z,-2.00
2019-01-22T16:48:39.532Z,-2.00
2019-01-22T16:51:09.389Z,-2.10
2019-01-22T16:53:39.267Z,-2.00
2019-01-22T16:56:09.151Z,-2.00
2019-01-22T16:58:39.264Z,-2.00
2019-01-22T17:01:09.777Z,-2.10
2019-01-22T17:03:40.023Z,-2.00
2019-01-22T17:06:10.063Z,-2.00
2019-01-22T17:08:40.259Z,-2.00
2019-01-22T17:11:10.567Z,-2.00
2019-01-22T17:13:40.480Z,-2.10
2019-01-22T17:16:10.495Z,-2.10
2019-01-22T17:18:40.543Z,-2.10
2019-01-22T17:21:10.411Z,-2.30
2019-01-22T17:23:40.321Z,-2.20
2019-01-22T17:26:10.179Z,-2.20
2019-01-22T17:28:40.236Z,-2.30
2019-01-22T17:31:35.230Z,-2.20
2019-01-22T17:34:05.272Z,-2.10
2019-01-22T17:36:35.245Z,-2.30
2019-01-22T17:39:07.133Z,-2.30
2019-01-22T17:41:37.772Z,-2.30
2019-01-22T17:44:09.172Z,-2.30
2019-01-22T17:46:39.108Z,-2.30
2019-01-22T17:49:09.131Z,-2.40
2019-01-22T17:51:39.470Z,-2.50
2019-01-22T17:54:14.436Z,-2.50
2019-01-22T17:56:44.301Z,-2.50
2019-01-22T17:59:14.208Z,-2.40
2019-01-22T18:01:44.713Z,-2.50
2019-01-22T18:04:14.595Z,-2.50
2019-01-22T18:06:47.990Z,-2.50
2019-01-22T18:09:18.712Z,-2.50
2019-01-22T18:11:48.735Z,-2.50
2019-01-22T18:14:19.056Z,-2.60
2019-01-22T18:16:49.195Z,-2.70
2019-01-22T18:19:23.811Z,-2.60
2019-01-22T18:21:53.405Z,-2.60
2019-01-22T18:24:23.529Z,-2.60
2019-01-22T18:26:54.697Z,-2.40
2019-01-22T18:29:25.032Z,-2.40
2019-01-22T18:31:55.151Z,-2.30
2019-01-22T18:37:11.205Z,-2.40
2019-01-22T18:39:41.179Z,-2.30
2019-01-22T18:42:11.293Z,-2.40
2019-01-22T18:44:41.181Z,-2.50
2019-01-22T18:47:11.075Z,-2.60
2019-01-22T18:49:41.120Z,-2.50
2019-01-22T18:52:11.143Z,-2.40
2019-01-22T18:54:43.079Z,-2.40
2019-01-22T18:57:13.121Z,-2.30
2019-01-22T18:59:43.194Z,-2.40
2019-01-22T19:02:13.617Z,-2.50
2019-01-22T19:04:43.511Z,-2.50
2019-01-22T19:07:13.668Z,-2.60
2019-01-22T19:09:45.781Z,-2.60
2019-01-22T19:12:15.748Z,-2.70
2019-01-22T19:14:45.650Z,-2.70
2019-01-22T19:17:17.448Z,-2.80
2019-01-22T19:19:47.657Z,-2.60
2019-01-22T19:22:18.256Z,-2.70
2019-01-22T19:24:48.670Z,-2.80
2019-01-22T19:27:19.075Z,-2.80
2019-01-22T19:29:50.072Z,-2.90
2019-01-22T19:32:19.936Z,-2.90
2019-01-22T19:34:50.307Z,-2.90
2019-01-22T19:37:20.362Z,-2.90
2019-01-22T19:39:50.549Z,-3.00
2019-01-22T19:42:20.488Z,-3.00
2019-01-22T19:44:50.540Z,-3.00
2019-01-22T19:47:20.417Z,-3.00
2019-01-22T19:49:54.050Z,-3.20
2019-01-22T19:52:24.494Z,-3.00
2019-01-22T19:54:55.250Z,-2.90
2019-01-22T19:57:25.175Z,-3.00
2019-01-22T19:59:55.398Z,-3.00
2019-01-22T20:02:25.279Z,-3.10
2019-01-22T20:04:55.232Z,-3.20
2019-01-22T20:07:27.539Z,-3.10
2019-01-22T20:09:57.445Z,-3.10
2019-01-22T20:12:27.324Z,-3.30
2019-01-22T20:14:57.185Z,-3.20
2019-01-22T20:17:29.840Z,-3.10
2019-01-22T20:19:59.732Z,-3.20
2019-01-22T20:22:29.687Z,-3.10
2019-01-22T20:25:00.387Z,-3.10
2019-01-22T20:27:30.947Z,-3.10
2019-01-22T20:30:03.303Z,-3.20
2019-01-22T20:32:33.668Z,-3.20
2019-01-22T20:35:04.229Z,-3.20
2019-01-22T20:37:34.935Z,-3.20
2019-01-22T20:40:06.708Z,-3.20
2019-01-22T20:42:37.132Z,-3.00
2019-01-22T20:45:09.653Z,-3.10
2019-01-22T20:47:39.981Z,-3.10
2019-01-22T20:50:11.430Z,-2.90
2019-01-22T20:52:41.388Z,-3.00
2019-01-22T20:55:12.601Z,-2.80
2019-01-22T20:57:42.619Z,-2.90
2019-01-22T21:00:17.634Z,-3.20
2019-01-22T21:02:47.620Z,-3.40
2019-01-22T21:05:26.032Z,-3.30
2019-01-22T21:07:55.920Z,-3.20
2019-01-22T21:10:28.090Z,-2.90
2019-01-22T21:12:58.111Z,-2.80
2019-01-22T21:15:28.032Z,-2.70
2019-01-22T21:17:57.908Z,-2.80
2019-01-22T21:20:28.202Z,-3.10
2019-01-22T21:22:58.424Z,-3.10
2019-01-22T21:25:28.982Z,-3.00
2019-01-22T21:28:01.952Z,-3.10
2019-01-22T21:30:35.216Z,-2.90
2019-01-22T21:33:07.316Z,-2.90
2019-01-22T21:35:37.911Z,-3.00
2019-01-22T21:38:08.951Z,-2.80
2019-01-22T21:40:41.238Z,-2.80
2019-01-22T21:43:11.074Z,-3.10
2019-01-22T21:45:41.279Z,-3.20
2019-01-22T21:48:11.166Z,-3.00
2019-01-22T21:50:41.083Z,-3.10
2019-01-22T21:53:10.949Z,-3.10
2019-01-22T21:55:40.820Z,-3.00
2019-01-22T21:58:10.731Z,-2.70
2019-01-22T22:00:40.750Z,-2.80
2019-01-22T22:03:10.698Z,-3.10
2019-01-22T22:05:40.606Z,-3.20
2019-01-22T22:08:10.528Z,-3.20
2019-01-22T22:10:40.452Z,-3.10
2019-01-22T22:13:10.447Z,-3.00
2019-01-22T22:15:40.453Z,-3.10
2019-01-22T22:18:10.336Z,-3.20
2019-01-22T22:20:42.433Z,-3.30
2019-01-22T22:23:11.768Z,-3.20
2019-01-22T22:25:41.643Z,-3.30
2019-01-22T22:28:15.143Z,-3.30
2019-01-22T22:30:43.084Z,-3.20
2019-01-22T22:33:13.053Z,-3.10
2019-01-22T22:35:43.008Z,-3.20
2019-01-22T22:38:12.890Z,-3.30
2019-01-22T22:40:42.748Z,-3.30
2019-01-22T22:43:12.640Z,-3.40
2019-01-22T22:45:42.563Z,-3.40
2019-01-22T22:48:12.596Z,-3.30
2019-01-22T22:50:42.479Z,-3.50
2019-01-22T22:53:12.357Z,-3.40
2019-01-22T22:55:42.202Z,-3.40
2019-01-22T22:58:12.058Z,-3.30
2019-01-22T23:00:54.845Z,-3.40
2019-01-22T23:03:24.805Z,-3.20
2019-01-22T23:05:54.780Z,-3.20
2019-01-22T23:08:24.827Z,-3.10
2019-01-22T23:10:54.866Z,-3.10
2019-01-22T23:13:24.825Z,-3.30
2019-01-22T23:15:54.761Z,-3.10
2019-01-22T23:18:24.732Z,-3.10
2019-01-22T23:20:54.624Z,-3.10
2019-01-22T23:23:24.512Z,-3.40
2019-01-22T23:25:54.471Z,-3.40
2019-01-22T23:28:28.778Z,-3.20
2019-01-22T23:30:55.840Z,-3.10
2019-01-22T23:33:25.726Z,-3.20
2019-01-22T23:35:55.592Z,-3.10
2019-01-22T23:38:25.570Z,-3.30
2019-01-22T23:40:55.433Z,-3.30
2019-01-22T23:43:25.315Z,-3.50
2019-01-22T23:45:55.272Z,-3.80
2019-01-22T23:48:25.227Z,-3.70
2019-01-22T23:50:55.077Z,-3.50
2019-01-22T23:53:25.107Z,-3.50
2019-01-22T23:55:54.968Z,-3.60
2019-01-22T23:58:25.070Z,-3.50
